Wanamassa, NJ

3:37 AM EST on February 23, 2017 (GMT -0500)
| | Change Station
Active Advisory: Dense Fog Advisory

Elev -9999 ft 0.00 °N, 0.00 °E | Updated 0 second ago

Partly Cloudy
Partly Cloudy
°F
Feels Like °F
N
Wind Variable Wind from North
Gusts mph

Today
High -- | Low -- °F
--% Chance of Precip.
Yesterday
High -- | Low -- °F
Precip. -- in
Pressure 29.90 in
Visibility 2.5 miles
Clouds Clear
Dew Point Not available.
Humidity Not available.
Rainfall --
Snow Depth Not available.
6:38 AM 5:41 PM
Waning Crescent, 12% visible
SPECI KBLM 230832Z AUTO 22003KT 2 1/2SM BR CLR 07/07 A2990 RMK AO2
Pressure 29.90 in
Visibility 2.5 miles
Clouds Clear
Dew Point Not available.
Humidity Not available.
Rainfall --
Snow Depth Not available.
6:38 AM 5:41 PM
Waning Crescent, 12% visible
SPECI KBLM 230832Z AUTO 22003KT 2 1/2SM BR CLR 07/07 A2990 RMK AO2

Get Your Daily Forecast Email!

Thanks for signing up!

Be on the lookout for a verification email in your inbox.

You'll start receiving the daily forecast at 8 AM.

×

10-Day Weather Forecast

Almanac

Astronomy

Feb. 23, 2017 Rise Set
Actual Time
Civil Twilight
Nautical Twilight
Astronomical Twilight
Moon
Length of Visible Light
Length of Day
Tomorrow will be .
, % of the Moon is Illuminated

Today's Extremes

State Highs State Lows

Community

WunderPhotos

Upload Photos

1,962,540 photos uploaded!

WunderBlog® & News

Nearby

Air Quality

  Air Quality AQ Index Pollutant
Not available.

Snow Depth

Station Depth Elevation

Earthquake Activity

City Distance Mag. Time & Date
Minimum magnitude displayed is 2.5.

Coastal Water Temperatures

Place Temperature

Stations

Nearby Weather Stations

Station Location Temp. Windchill Dew Point Humidity Wind Precip. Elev Updated Type
                   

Watches & Warnings

Dense Fog Advisory
Issued: 2:58 AM EST Feb. 23, 2017 – National Weather Service

... Dense fog advisory in effect until 10 am EST this morning...

The National Weather Service in Mount Holly has issued a dense
fog advisory. It is in effect until 10:00 am this morning.

* Locations... northeastern Maryland, northern and central
Delaware, southeastern Pennsylvania, and central and southern
New Jersey.

* Visibility... reduced to less than a quarter mile in spots.

* Timing... the areas of dense fog will persist until mid morning.

* Impacts... the dense fog and reduced visibility will create
hazardous driving conditions.

Precautionary/preparedness actions...

A dense fog advisory means that the visibility will be reduced to
less than one quarter mile. If driving, use extra caution and be
sure to leave plenty of distance between your vehicle and the one
ahead of you.



Iovino